Time;durP1;ratioP1;P1;durP2;ratioP2;P2;SDS_P1;SDS_P2;PMS_P1;PMS_P2;Temp;Humidity;BMP_temperature;BMP_pressure;BME280_temperature;BME280_humidity;BME280_pressure;Samples;Min_cycle;Max_cycle;Signal;HPM_P1;HPM_P2
2021/06/09 00:00:24;;;;;;;4.00;2.50;;;;;;;23.11;64.56;100518.23;1737348;81;21029;-63
2021/06/09 00:02:51;;;;;;;3.40;2.62;;;;;;;23.09;64.50;100517.75;1733156;81;21050;-63
2021/06/09 00:05:17;;;;;;;4.40;2.52;;;;;;;23.06;64.52;100513.70;1738752;81;21338;-63
2021/06/09 00:07:44;;;;;;;3.33;2.40;;;;;;;23.03;64.48;100511.63;1736245;81;21581;-63
2021/06/09 00:10:10;;;;;;;2.83;2.20;;;;;;;23.05;64.46;100507.92;1736159;81;21004;-63
2021/06/09 00:12:37;;;;;;;3.10;2.10;;;;;;;23.06;64.48;100502.61;1735348;81;22179;-63
2021/06/09 00:15:07;;;;;;;2.95;2.12;;;;;;;23.06;64.58;100501.80;1736763;81;21107;-62
2021/06/09 00:17:33;;;;;;;3.50;2.45;;;;;;;23.06;64.65;100501.22;1737329;81;21093;-63
2021/06/09 00:19:59;;;;;;;3.22;2.10;;;;;;;23.06;64.74;100502.61;1734403;81;21044;-63
2021/06/09 00:22:25;;;;;;;5.08;2.65;;;;;;;23.07;64.75;100504.81;1734741;81;21539;-63
2021/06/09 00:24:51;;;;;;;3.95;2.52;;;;;;;23.06;64.74;100504.00;1736629;81;20988;-62
2021/06/09 00:27:17;;;;;;;4.85;2.50;;;;;;;23.06;64.69;100502.61;1736211;81;20929;-63
2021/06/09 00:29:43;;;;;;;3.35;2.35;;;;;;;23.05;64.66;100505.71;1736996;81;21377;-63
2021/06/09 00:32:10;;;;;;;3.92;2.30;;;;;;;23.05;64.60;100507.10;1735145;81;21148;-63
2021/06/09 00:34:36;;;;;;;5.85;3.05;;;;;;;23.02;64.55;100498.08;1747858;80;21008;-63
2021/06/09 00:37:03;;;;;;;3.42;2.25;;;;;;;23.02;64.51;100503.06;1736228;81;21028;-63
2021/06/09 00:39:29;;;;;;;2.72;2.02;;;;;;;22.99;64.51;100500.98;1736069;81;21506;-63
2021/06/09 00:41:55;;;;;;;4.42;2.67;;;;;;;22.97;64.49;100496.90;1738178;81;21269;-63
2021/06/09 00:44:21;;;;;;;3.42;2.20;;;;;;;22.97;64.45;100499.67;1734574;81;21024;-63
2021/06/09 00:46:47;;;;;;;3.30;2.30;;;;;;;22.99;64.50;100504.32;1737073;81;21538;-63
2021/06/09 00:49:13;;;;;;;2.83;2.20;;;;;;;22.98;64.59;100496.57;1735600;81;21069;-63
2021/06/09 00:51:39;;;;;;;3.25;2.35;;;;;;;23.00;64.65;100502.57;1737388;81;21052;-62
2021/06/09 00:54:06;;;;;;;3.58;2.70;;;;;;;22.99;64.72;100496.81;1739173;81;21122;-62
2021/06/09 00:56:34;;;;;;;2.67;2.27;;;;;;;22.99;64.75;100494.03;1737977;81;21021;-63
2021/06/09 00:59:01;;;;;;;2.83;2.40;;;;;;;23.00;64.73;100485.14;1734677;81;21055;-63
2021/06/09 01:01:28;;;;;;;4.35;2.47;;;;;;;23.00;64.69;100490.09;1735601;81;21715;-63
2021/06/09 01:03:55;;;;;;;3.65;2.00;;;;;;;22.99;64.66;100491.84;1736614;81;20997;-62
2021/06/09 01:06:21;;;;;;;4.33;2.72;;;;;;;22.98;64.60;100491.59;1737222;80;21844;-63
2021/06/09 01:08:50;;;;;;;3.98;2.40;;;;;;;22.97;64.55;100494.94;1736551;81;21004;-63
2021/06/09 01:11:22;;;;;;;3.77;2.30;;;;;;;22.94;64.50;100483.15;1729078;81;20951;-63
2021/06/09 01:13:49;;;;;;;3.10;2.27;;;;;;;22.92;64.46;100487.40;1723424;82;21125;-64
2021/06/09 01:16:15;;;;;;;3.40;2.35;;;;;;;22.89;64.46;100490.86;1686648;83;21080;-63
2021/06/09 01:18:41;;;;;;;3.42;2.10;;;;;;;22.89;64.42;100492.25;1716368;81;21122;-63
2021/06/09 01:21:07;;;;;;;4.55;2.77;;;;;;;22.89;64.47;100495.02;1686211;83;21178;-61
2021/06/09 01:23:34;;;;;;;3.62;2.08;;;;;;;22.91;64.52;100497.71;1685270;83;21093;-60
2021/06/09 01:26:00;;;;;;;2.95;2.30;;;;;;;22.91;64.62;100494.94;1718636;81;21555;-61
2021/06/09 01:28:26;;;;;;;4.03;2.37;;;;;;;22.92;64.72;100490.17;1698679;83;21134;-60
2021/06/09 01:30:52;;;;;;;3.85;2.50;;;;;;;22.92;64.72;100486.83;1713786;81;21498;-59
2021/06/09 01:33:19;;;;;;;2.85;2.30;;;;;;;22.91;64.69;100488.57;1693496;83;21635;-60
2021/06/09 01:35:45;;;;;;;3.90;2.80;;;;;;;22.92;64.69;100488.21;1697690;83;21491;-61
2021/06/09 01:38:12;;;;;;;3.70;2.35;;;;;;;22.91;64.61;100489.95;1722127;81;21117;-60
2021/06/09 01:40:39;;;;;;;3.10;2.30;;;;;;;22.91;64.58;100489.39;1717315;81;21008;-60
2021/06/09 01:43:06;;;;;;;3.17;2.02;;;;;;;22.88;64.53;100490.05;1705517;83;21082;-60
2021/06/09 01:45:34;;;;;;;3.25;2.37;;;;;;;22.87;64.48;100489.02;1683704;83;21481;-60
2021/06/09 01:48:01;;;;;;;3.20;2.15;;;;;;;22.85;64.44;100490.73;1718264;81;21037;-60
2021/06/09 01:50:27;;;;;;;3.27;2.10;;;;;;;22.82;64.43;100491.42;1697693;83;21050;-60
2021/06/09 01:52:54;;;;;;;3.50;2.02;;;;;;;22.83;64.40;100494.41;1717371;81;21005;-60
2021/06/09 01:55:22;;;;;;;2.80;2.17;;;;;;;22.84;64.45;100491.88;1698203;83;21488;-60
2021/06/09 01:57:49;;;;;;;2.95;2.20;;;;;;;22.86;64.52;100505.42;1695023;83;21037;-60
2021/06/09 02:00:28;;;;;;;3.42;2.45;;;;;;;22.85;64.60;100504.60;1714836;81;21029;-60
2021/06/09 02:02:58;;;;;;;3.58;2.27;;;;;;;22.84;64.66;100500.77;1700918;83;21061;-59
2021/06/09 02:05:33;;;;;;;4.58;2.25;;;;;;;22.85;64.64;100499.62;1698887;83;21119;-60
2021/06/09 02:08:02;;;;;;;3.17;2.30;;;;;;;22.84;64.60;100499.39;1706531;83;21084;-60
2021/06/09 02:10:28;;;;;;;3.72;2.75;;;;;;;22.82;64.58;100496.97;1715228;81;20958;-61
2021/06/09 02:12:58;;;;;;;3.33;2.40;;;;;;;22.81;64.53;100498.69;1745168;80;21009;-60
2021/06/09 02:15:25;;;;;;;4.55;2.52;;;;;;;22.79;64.49;100511.50;1749923;80;20972;-60
2021/06/09 02:18:13;;;;;;;3.00;2.30;;;;;;;22.78;64.48;100514.63;1745980;80;21442;-60
2021/06/09 02:20:48;;;;;;;3.27;2.30;;;;;;;22.75;64.44;100506.39;1725934;81;21469;-60
2021/06/09 02:23:17;;;;;;;2.65;1.92;;;;;;;22.72;64.43;100510.67;1742220;80;21067;-60
2021/06/09 02:25:46;;;;;;;2.83;1.82;;;;;;;22.73;64.39;100512.30;1736095;81;21116;-60
2021/06/09 02:28:13;;;;;;;2.80;1.70;;;;;;;22.72;64.45;100513.44;1736886;81;21084;-60
2021/06/09 02:30:43;;;;;;;3.02;1.98;;;;;;;22.74;64.58;100514.50;1737745;81;21119;-60
2021/06/09 02:33:10;;;;;;;2.60;1.85;;;;;;;22.75;64.64;100516.10;1734365;81;21985;-60
2021/06/09 02:35:37;;;;;;;3.50;2.15;;;;;;;22.76;64.72;100522.70;1733638;81;21161;-61
2021/06/09 02:38:04;;;;;;;3.77;2.20;;;;;;;22.77;64.73;100516.59;1738688;81;21051;-60
2021/06/09 02:40:30;;;;;;;2.50;2.10;;;;;;;22.77;64.70;100515.20;1735754;81;21079;-60
2021/06/09 02:42:56;;;;;;;3.10;2.00;;;;;;;22.78;64.65;100517.41;1738392;81;20997;-61
2021/06/09 02:45:23;;;;;;;3.42;2.10;;;;;;;22.78;64.61;100522.95;1734721;81;21205;-60
2021/06/09 02:47:53;;;;;;;3.45;2.35;;;;;;;22.76;64.57;100522.70;1734065;81;21104;-60
2021/06/09 02:50:19;;;;;;;3.33;2.40;;;;;;;22.76;64.51;100528.83;1740236;81;21135;-60
2021/06/09 02:53:03;;;;;;;2.67;2.12;;;;;;;22.73;64.46;100524.78;1736200;81;21442;-60
2021/06/09 02:55:51;;;;;;;3.15;2.33;;;;;;;22.72;64.42;100525.92;1737983;81;21084;-60
2021/06/09 02:58:45;;;;;;;2.67;2.37;;;;;;;22.69;64.40;100526.61;1738419;81;21122;-61
2021/06/09 03:01:34;;;;;;;4.50;2.30;;;;;;;22.66;64.38;100526.45;1738636;81;21042;-62
2021/06/09 03:04:09;;;;;;;2.50;2.02;;;;;;;22.65;64.36;100522.86;1724721;81;21029;-62
2021/06/09 03:06:56;;;;;;;3.27;2.20;;;;;;;22.67;64.43;100523.89;1718233;81;20957;-61
2021/06/09 03:09:33;;;;;;;5.10;2.27;;;;;;;22.66;64.52;100517.52;1726338;81;21481;-62
2021/06/09 03:12:22;;;;;;;2.60;2.08;;;;;;;22.66;64.62;100510.59;1691764;81;21073;-61
2021/06/09 03:15:10;;;;;;;2.37;1.87;;;;;;;22.67;64.66;100510.84;1697527;83;21073;-62
2021/06/09 03:17:54;;;;;;;2.95;2.30;;;;;;;22.67;64.66;100513.61;1718330;81;21119;-61
2021/06/09 03:20:46;;;;;;;3.35;2.45;;;;;;;22.65;64.60;100510.38;1697531;83;21099;-62
2021/06/09 03:23:20;;;;;;;3.27;2.25;;;;;;;22.64;64.54;100510.70;1702465;81;21088;-62
2021/06/09 03:25:53;;;;;;;3.00;2.00;;;;;;;22.63;64.50;100516.01;1702406;83;21149;-62
2021/06/09 03:28:33;;;;;;;2.67;2.20;;;;;;;22.62;64.47;100515.77;1699743;83;21603;-62
2021/06/09 03:31:03;;;;;;;2.77;2.00;;;;;;;22.59;64.45;100514.49;1704252;83;21547;-62
2021/06/09 03:33:36;;;;;;;4.17;2.20;;;;;;;22.58;64.44;100513.44;1708862;83;21116;-61
2021/06/09 03:36:20;;;;;;;4.10;2.00;;;;;;;22.58;64.39;100521.18;1722554;81;20993;-62
2021/06/09 03:38:50;;;;;;;3.00;1.98;;;;;;;22.59;64.44;100518.65;1707411;83;21075;-62
2021/06/09 03:41:16;;;;;;;;;;;;;;;22.62;64.52;100522.70;1707204;83;21412;-62
2021/06/09 03:43:46;;;;;;;2.33;1.67;;;;;;;22.61;64.59;100526.07;1681114;83;20221;-61
2021/06/09 03:46:12;;;;;;;2.65;1.92;;;;;;;22.61;64.68;100521.91;1694246;83;21544;-62
2021/06/09 03:48:40;;;;;;;2.40;2.08;;;;;;;22.62;64.66;100519.92;1703651;83;21013;-61
2021/06/09 03:51:06;;;;;;;2.52;1.90;;;;;;;22.62;64.64;100522.13;1678684;83;21321;-61
2021/06/09 03:53:32;;;;;;;3.90;2.25;;;;;;;22.62;64.59;100517.15;1722194;81;20978;-61
2021/06/09 03:56:01;;;;;;;3.35;2.25;;;;;;;22.62;64.54;100516.58;1715651;81;21072;-62
2021/06/09 03:58:27;;;;;;;3.10;2.17;;;;;;;22.59;64.50;100518.65;1705591;83;21103;-62
2021/06/09 04:00:54;;;;;;;4.05;2.08;;;;;;;22.61;64.51;100525.26;1661337;84;21620;-61
2021/06/09 04:03:20;;;;;;;5.42;2.20;;;;;;;22.60;64.51;100525.02;1685040;82;21718;-61
2021/06/09 04:05:47;;;;;;;3.87;1.80;;;;;;;22.61;64.50;100528.84;1715984;82;21075;-61
2021/06/09 04:08:13;;;;;;;6.03;2.15;;;;;;;22.63;64.58;100522.94;1719008;82;21092;-61
2021/06/09 04:10:41;;;;;;;3.10;1.98;;;;;;;22.65;64.68;100520.66;1690255;83;21088;-62
2021/06/09 04:13:08;;;;;;;6.15;2.40;;;;;;;22.66;64.81;100531.39;1719646;81;21037;-60
2021/06/09 04:15:34;;;;;;;5.83;2.35;;;;;;;22.69;64.90;100520.25;1730375;81;21655;-61
2021/06/09 04:18:00;;;;;;;4.40;2.08;;;;;;;22.71;64.99;100529.84;1715353;81;21656;-61
2021/06/09 04:20:31;;;;;;;5.30;2.10;;;;;;;22.73;65.00;100526.73;1749778;80;21142;-60
2021/06/09 04:22:57;;;;;;;2.77;1.70;;;;;;;22.72;64.99;100526.50;1757930;80;21613;-61
2021/06/09 04:25:24;;;;;;;8.40;2.98;;;;;;;22.74;65.04;100529.16;1746168;81;21044;-61
2021/06/09 04:27:50;;;;;;;4.12;1.90;;;;;;;22.74;65.04;100527.77;1741667;81;21047;-61
2021/06/09 04:30:17;;;;;;;7.15;3.25;;;;;;;22.76;65.01;100531.03;1733897;81;21399;-63
2021/06/09 04:32:56;;;;;;;5.97;2.47;;;;;;;22.74;64.97;100528.37;1748381;81;21091;-61
2021/06/09 04:35:25;;;;;;;4.05;2.47;;;;;;;22.76;65.00;100532.98;1738798;81;21075;-62
2021/06/09 04:37:51;;;;;;;31.60;11.05;;;;;;;22.79;65.05;100531.52;1737850;81;21470;-62
2021/06/09 04:40:24;;;;;;;40.85;15.72;;;;;;;22.83;65.13;100531.86;1745979;81;21144;-66
2021/06/09 04:42:52;;;;;;;39.90;15.85;;;;;;;22.87;65.19;100531.44;1747550;81;21103;-64
2021/06/09 04:45:19;;;;;;;27.13;11.55;;;;;;;22.91;65.27;100538.50;1733072;81;21175;-64
2021/06/09 04:47:50;;;;;;;44.77;17.25;;;;;;;22.94;65.37;100537.25;1741269;81;21605;-64
2021/06/09 04:50:22;;;;;;;64.47;25.10;;;;;;;22.96;65.37;100541.05;1760870;80;21585;-66
2021/06/09 04:52:48;;;;;;;71.75;27.22;;;;;;;22.97;65.46;100531.58;1744555;80;21734;-67
2021/06/09 04:55:15;;;;;;;46.60;23.60;;;;;;;22.99;65.55;100532.88;1731762;80;21411;-66
2021/06/09 04:57:41;;;;;;;36.48;16.37;;;;;;;22.99;65.66;100529.30;1758068;80;21115;-65
2021/06/09 05:00:10;;;;;;;25.15;12.35;;;;;;;23.03;65.78;100527.45;1759467;80;20920;-68
2021/06/09 05:02:36;;;;;;;20.82;10.38;;;;;;;23.05;65.90;100527.91;1757526;80;21003;-64
2021/06/09 05:05:04;;;;;;;14.33;7.58;;;;;;;23.06;66.01;100528.16;1764298;80;23236;-65
2021/06/09 05:07:30;;;;;;;36.85;12.37;;;;;;;23.08;66.13;100531.41;1754999;80;21063;-62
2021/06/09 05:09:56;;;;;;;40.95;14.80;;;;;;;23.08;66.17;100531.41;1752658;80;21646;-63
2021/06/09 05:12:57;;;;;;;45.00;17.85;;;;;;;23.08;66.18;100528.64;1747464;80;21282;-64
2021/06/09 05:15:25;;;;;;;47.70;18.07;;;;;;;23.08;66.15;100529.45;1764270;80;21100;-63
2021/06/09 05:17:51;;;;;;;46.15;18.25;;;;;;;23.09;66.05;100535.22;1739075;80;22071;-63
2021/06/09 05:20:33;;;;;;;67.05;27.95;;;;;;;23.07;65.97;100540.31;1733448;81;21075;-63
2021/06/09 05:23:23;;;;;;;66.12;28.32;;;;;;;23.05;65.88;100534.84;1720590;81;21087;-64
2021/06/09 05:25:50;;;;;;;48.02;21.80;;;;;;;23.02;65.79;100536.92;1719651;82;21074;-63
2021/06/09 05:28:17;;;;;;;67.55;27.82;;;;;;;22.98;65.74;100543.73;1764938;80;21063;-65
2021/06/09 05:30:43;;;;;;;42.93;17.90;;;;;;;22.96;65.71;100541.86;1765011;80;21433;-63
2021/06/09 05:33:10;;;;;;;29.25;12.30;;;;;;;22.96;65.73;100539.66;1763569;80;21006;-64
2021/06/09 05:35:36;;;;;;;19.95;8.65;;;;;;;22.97;65.81;100538.52;1763740;80;21391;-64
2021/06/09 05:38:04;;;;;;;21.05;7.40;;;;;;;22.96;65.85;100533.54;1756053;80;21012;-64
2021/06/09 05:40:31;;;;;;;18.30;7.87;;;;;;;22.97;65.93;100537.12;1761495;80;20940;-64
2021/06/09 05:42:57;;;;;;;17.95;6.83;;;;;;;22.97;65.99;100540.72;1758400;80;21861;-63
2021/06/09 05:45:31;;;;;;;16.93;6.83;;;;;;;22.97;66.01;100538.52;1761272;80;20980;-64
2021/06/09 05:47:58;;;;;;;14.53;6.35;;;;;;;22.96;65.96;100537.70;1761366;80;21004;-64
2021/06/09 05:50:29;;;;;;;13.15;5.78;;;;;;;22.96;65.95;100536.88;1755394;80;21432;-64
2021/06/09 05:52:58;;;;;;;14.10;5.30;;;;;;;22.95;65.88;100538.06;1758007;80;21177;-63
2021/06/09 05:55:27;;;;;;;13.45;5.72;;;;;;;22.93;65.81;100538.39;1731318;81;21838;-64
2021/06/09 05:57:54;;;;;;;13.43;5.30;;;;;;;22.92;65.77;100545.66;1724957;81;21420;-64
2021/06/09 06:00:24;;;;;;;14.03;5.15;;;;;;;22.89;65.75;100540.22;1710047;81;21104;-64
2021/06/09 06:02:50;;;;;;;11.08;4.42;;;;;;;22.91;65.71;100538.50;1757436;80;21067;-63
2021/06/09 06:05:17;;;;;;;11.00;4.35;;;;;;;22.92;65.72;100537.33;1758525;80;20937;-64
2021/06/09 06:07:43;;;;;;;16.95;4.40;;;;;;;22.92;65.78;100540.11;1760870;80;21125;-64
2021/06/09 06:10:10;;;;;;;12.35;4.15;;;;;;;22.96;65.85;100545.21;1747195;80;21009;-64
2021/06/09 06:12:37;;;;;;;13.03;5.37;;;;;;;22.97;65.90;100549.05;1756605;80;21483;-58
2021/06/09 06:15:07;;;;;;;9.65;4.00;;;;;;;22.98;65.88;100535.98;1760971;80;20981;-58
2021/06/09 06:17:35;;;;;;;14.03;4.10;;;;;;;23.00;65.82;100535.87;1730750;81;21045;-59
2021/06/09 06:20:02;;;;;;;14.35;4.58;;;;;;;23.00;65.77;100544.80;1719651;81;21076;-59
2021/06/09 06:22:29;;;;;;;10.18;4.05;;;;;;;23.00;65.70;100540.63;1767545;80;21064;-59
2021/06/09 06:24:55;;;;;;;10.45;4.00;;;;;;;23.01;65.63;100536.69;1757259;80;21020;-58
2021/06/09 06:27:21;;;;;;;11.08;3.90;;;;;;;22.98;65.56;100535.41;1767062;80;20968;-59
2021/06/09 06:29:47;;;;;;;15.50;3.62;;;;;;;22.98;65.52;100547.08;1766120;80;21059;-59
2021/06/09 06:32:15;;;;;;;8.08;2.65;;;;;;;22.95;65.46;100544.42;1762719;80;22124;-59
2021/06/09 06:34:44;;;;;;;7.45;2.92;;;;;;;22.96;65.41;100536.88;1756977;80;21056;-59
2021/06/09 06:37:11;;;;;;;11.80;3.30;;;;;;;22.97;65.43;100542.11;1759394;80;21525;-59
2021/06/09 06:39:37;;;;;;;6.55;2.83;;;;;;;22.97;65.47;100539.33;1745191;80;21068;-60
2021/06/09 06:42:04;;;;;;;7.10;3.20;;;;;;;22.97;65.53;100531.58;1764884;80;21147;-59
2021/06/09 06:44:30;;;;;;;7.90;3.40;;;;;;;22.97;65.60;100525.45;1730701;81;21140;-59
2021/06/09 06:46:56;;;;;;;8.30;3.00;;;;;;;22.96;65.58;100523.83;1726930;81;21321;-59
2021/06/09 06:49:23;;;;;;;7.78;2.95;;;;;;;22.96;65.56;100525.22;1727235;81;20993;-59
2021/06/09 06:51:52;;;;;;;7.72;3.35;;;;;;;22.98;65.51;100526.27;1729182;81;20988;-60
2021/06/09 06:54:20;;;;;;;6.15;2.58;;;;;;;22.96;65.46;100524.41;1729453;81;21012;-59
2021/06/09 06:56:48;;;;;;;6.08;2.72;;;;;;;22.94;65.40;100528.92;1726967;81;21136;-59
2021/06/09 06:59:15;;;;;;;6.53;2.30;;;;;;;22.93;65.35;100520.36;1725550;81;21009;-59
2021/06/09 07:01:41;;;;;;;5.95;2.15;;;;;;;22.91;65.31;100515.73;1763338;80;21062;-59
2021/06/09 07:04:07;;;;;;;5.87;2.80;;;;;;;22.89;65.28;100513.87;1732071;81;21431;-59
2021/06/09 07:06:34;;;;;;;4.83;2.35;;;;;;;22.90;65.25;100515.50;1736084;81;20946;-60
2021/06/09 07:09:00;;;;;;;5.70;2.15;;;;;;;22.92;65.26;100510.98;1717170;81;21176;-59
2021/06/09 07:11:27;;;;;;;5.58;2.02;;;;;;;22.91;65.33;100512.97;1732493;80;20977;-59
2021/06/09 07:13:55;;;;;;;4.83;1.95;;;;;;;22.94;65.38;100519.78;1739145;80;21121;-59
2021/06/09 07:16:21;;;;;;;6.37;2.02;;;;;;;22.94;65.43;100514.23;1727369;81;21040;-60
2021/06/09 07:18:47;;;;;;;4.47;2.17;;;;;;;22.93;65.43;100516.77;1727715;81;21053;-59
2021/06/09 07:21:17;;;;;;;4.22;2.22;;;;;;;22.93;65.41;100514.81;1679028;83;21166;-59
2021/06/09 07:23:44;;;;;;;4.40;1.90;;;;;;;22.93;65.37;100514.81;1695016;82;21076;-59
2021/06/09 07:26:10;;;;;;;4.70;1.95;;;;;;;22.91;65.30;100511.58;1695996;82;21054;-59
2021/06/09 07:28:47;;;;;;;4.50;1.77;;;;;;;22.91;65.27;100514.92;1725258;82;21000;-59
2021/06/09 07:31:16;;;;;;;2.77;1.92;;;;;;;22.90;65.22;100509.95;1706663;82;21163;-60
2021/06/09 07:33:45;;;;;;;5.17;2.00;;;;;;;22.88;65.17;100515.02;1704231;82;21852;-59
2021/06/09 07:36:12;;;;;;;5.25;1.80;;;;;;;22.87;65.17;100512.59;1705839;82;21395;-60
2021/06/09 07:38:48;;;;;;;4.95;1.65;;;;;;;22.88;65.12;100515.02;1705782;82;21536;-60
2021/06/09 07:41:15;;;;;;;4.55;1.80;;;;;;;22.89;65.13;100514.44;1704141;82;21503;-60
2021/06/09 07:43:42;;;;;;;3.33;1.62;;;;;;;22.90;65.20;100520.23;1706063;82;21119;-60
2021/06/09 07:46:09;;;;;;;4.83;1.80;;;;;;;22.90;65.25;100523.82;1699532;82;21256;-60
2021/06/09 07:48:36;;;;;;;4.58;1.75;;;;;;;22.92;65.30;100517.91;1701357;82;21043;-61
2021/06/09 07:51:11;;;;;;;3.25;1.72;;;;;;;22.92;65.33;100515.14;1705613;82;21458;-61
2021/06/09 07:53:39;;;;;;;2.92;1.60;;;;;;;22.92;65.30;100519.30;1706264;82;21120;-60
2021/06/09 07:56:06;;;;;;;4.12;1.82;;;;;;;22.91;65.26;100524.06;1707287;82;21162;-59
2021/06/09 07:58:33;;;;;;;3.67;1.85;;;;;;;22.92;65.19;100520.69;1702961;82;22005;-64
2021/06/09 08:01:01;;;;;;;3.55;1.75;;;;;;;22.91;65.15;100521.29;1707000;82;21017;-60
2021/06/09 08:03:32;;;;;;;2.52;1.45;;;;;;;22.90;65.10;100528.55;1699607;82;21045;-60
2021/06/09 08:06:03;;;;;;;3.75;1.80;;;;;;;22.88;65.04;100531.66;1704903;82;21116;-59
2021/06/09 08:08:30;;;;;;;5.75;2.10;;;;;;;22.87;65.04;100532.02;1706481;82;21092;-61
2021/06/09 08:10:56;;;;;;;4.20;1.85;;;;;;;22.85;65.01;100541.23;1704912;82;21144;-59
2021/06/09 08:13:23;;;;;;;3.25;1.37;;;;;;;22.85;64.97;100536.50;1720683;81;21077;-59
2021/06/09 08:15:49;;;;;;;2.58;1.35;;;;;;;22.87;64.98;100537.56;1741444;81;21020;-59
2021/06/09 08:18:15;;;;;;;2.72;1.40;;;;;;;22.88;65.06;100539.16;1739864;81;20979;-59
2021/06/09 08:21:14;;;;;;;3.75;1.45;;;;;;;22.89;65.11;100538.02;1748701;80;21419;-59
2021/06/09 08:23:43;;;;;;;3.52;1.70;;;;;;;22.89;65.18;100531.08;1713257;81;21833;-59
2021/06/09 08:26:11;;;;;;;2.95;1.60;;;;;;;22.90;65.17;100532.72;1732875;81;21790;-60
2021/06/09 08:28:40;;;;;;;3.92;1.52;;;;;;;22.89;65.16;100531.90;1742875;80;21379;-60
2021/06/09 08:31:08;;;;;;;3.20;2.08;;;;;;;22.89;65.11;100529.13;1734363;81;21024;-59
2021/06/09 08:33:35;;;;;;;3.47;1.55;;;;;;;22.90;65.07;100534.10;1732218;81;20977;-60
2021/06/09 08:36:04;;;;;;;2.50;1.60;;;;;;;22.89;65.03;100536.06;1711457;81;22260;-60
2021/06/09 08:38:30;;;;;;;5.03;1.80;;;;;;;22.88;64.97;100537.77;1715767;81;21165;-60
2021/06/09 08:40:56;;;;;;;3.20;1.37;;;;;;;22.86;64.92;100541.48;1736680;81;21106;-61
2021/06/09 08:43:23;;;;;;;3.95;1.72;;;;;;;22.86;64.91;100544.25;1751560;80;21359;-60
2021/06/09 08:45:49;;;;;;;3.47;1.62;;;;;;;22.84;64.87;100546.54;1740859;80;21032;-60
2021/06/09 08:48:16;;;;;;;2.75;1.50;;;;;;;22.85;64.85;100539.84;1743129;80;21163;-61
2021/06/09 08:50:44;;;;;;;2.52;1.10;;;;;;;22.87;64.88;100545.31;1738091;81;21056;-60
2021/06/09 08:53:10;;;;;;;2.42;1.30;;;;;;;22.88;64.96;100541.36;1739730;81;21309;-60
2021/06/09 08:55:37;;;;;;;3.95;1.42;;;;;;;22.90;65.02;100539.08;1732022;81;21082;-58
2021/06/09 08:58:06;;;;;;;3.12;1.80;;;;;;;22.91;65.08;100542.09;1728977;81;21482;-58
2021/06/09 09:00:33;;;;;;;2.72;1.37;;;;;;;22.92;65.09;100542.88;1751666;80;21047;-59
2021/06/09 09:03:01;;;;;;;3.70;1.20;;;;;;;22.92;65.07;100542.30;1728254;81;21575;-58
2021/06/09 09:05:31;;;;;;;3.37;1.57;;;;;;;22.92;65.02;100546.47;1747122;80;20952;-59
2021/06/09 09:07:57;;;;;;;2.75;1.42;;;;;;;22.93;64.98;100541.16;1710277;81;21447;-59
2021/06/09 09:10:25;;;;;;;2.15;1.20;;;;;;;22.92;64.93;100540.92;1745842;80;21035;-59
2021/06/09 09:12:51;;;;;;;3.52;1.40;;;;;;;22.90;64.87;100530.76;1742239;80;21083;-59
2021/06/09 09:15:18;;;;;;;2.77;1.40;;;;;;;22.90;64.83;100533.53;1705067;83;21356;-59
2021/06/09 09:18:00;;;;;;;2.50;1.40;;;;;;;22.89;64.81;100534.67;1714296;81;21107;-59
2021/06/09 09:20:33;;;;;;;2.40;1.32;;;;;;;22.89;64.79;100533.86;1692340;83;21068;-59
2021/06/09 09:23:02;;;;;;;2.98;1.27;;;;;;;22.91;64.75;100537.12;1691740;83;21157;-59
2021/06/09 09:25:31;;;;;;;2.40;1.32;;;;;;;22.92;64.79;100530.39;1689923;83;21269;-59
2021/06/09 09:28:01;;;;;;;2.27;1.52;;;;;;;22.94;64.84;100537.81;1718896;81;21011;-60
2021/06/09 09:30:30;;;;;;;2.47;1.20;;;;;;;22.96;64.91;100535.50;1689786;83;21108;-59
2021/06/09 09:33:09;;;;;;;2.98;1.20;;;;;;;22.97;64.97;100525.45;1719426;83;21039;-59
2021/06/09 09:35:42;;;;;;;2.75;1.35;;;;;;;22.99;64.98;100528.72;1718392;81;20969;-59
2021/06/09 09:38:22;;;;;;;5.20;1.50;;;;;;;23.00;64.93;100525.37;1694833;81;21012;-59
2021/06/09 09:41:01;;;;;;;3.25;1.37;;;;;;;23.01;64.86;100519.47;1715055;82;20989;-58
2021/06/09 09:43:50;;;;;;;3.47;1.75;;;;;;;23.01;64.79;100522.23;1712006;82;21048;-59
2021/06/09 09:46:23;;;;;;;3.08;1.22;;;;;;;23.01;64.73;100520.85;1714716;81;20969;-59
2021/06/09 09:49:14;;;;;;;2.62;1.30;;;;;;;23.00;64.67;100517.05;1687124;83;21527;-60
2021/06/09 09:52:01;;;;;;;2.12;1.30;;;;;;;23.00;64.65;100519.22;1714560;81;21574;-60
2021/06/09 09:54:37;;;;;;;2.75;1.50;;;;;;;22.98;64.59;100513.22;1715557;81;21049;-59
2021/06/09 09:57:11;;;;;;;2.70;1.40;;;;;;;22.97;64.58;100511.59;1713518;81;22735;-59
2021/06/09 09:59:37;;;;;;;2.00;1.12;;;;;;;22.99;64.51;100505.14;1712255;81;21084;-58
2021/06/09 10:02:04;;;;;;;1.45;1.00;;;;;;;23.02;64.55;100500.28;1689022;83;21609;-58
2021/06/09 10:04:34;;;;;;;2.02;0.95;;;;;;;23.06;64.63;100494.86;1683137;83;21041;-58
2021/06/09 10:07:01;;;;;;;1.87;0.90;;;;;;;23.10;64.69;100500.77;1709568;81;21590;-59
2021/06/09 10:09:43;;;;;;;3.02;1.30;;;;;;;23.13;64.73;100494.53;1710782;81;21598;-59
2021/06/09 10:12:14;;;;;;;2.22;1.17;;;;;;;23.16;64.70;100495.25;1695431;83;21155;-59
2021/06/09 10:14:46;;;;;;;2.17;1.30;;;;;;;23.21;64.66;100485.91;1738036;80;21080;-59
2021/06/09 10:17:16;;;;;;;2.12;1.30;;;;;;;23.26;64.54;100481.50;1736793;81;21116;-58
2021/06/09 10:19:53;;;;;;;1.92;1.10;;;;;;;23.31;64.40;100479.08;1738557;81;21557;-60
2021/06/09 10:22:32;;;;;;;2.42;1.30;;;;;;;23.34;64.30;100482.58;1736330;81;21074;-59
2021/06/09 10:25:04;;;;;;;2.75;1.57;;;;;;;23.37;64.18;100479.11;1737546;81;21099;-59
2021/06/09 10:27:40;;;;;;;2.50;1.30;;;;;;;23.38;64.05;100477.36;1737516;81;21618;-58
2021/06/09 10:30:23;;;;;;;2.80;1.27;;;;;;;23.39;63.96;100476.20;1751812;80;21656;-59
2021/06/09 10:32:57;;;;;;;2.15;1.30;;;;;;;23.39;63.86;100474.82;1726062;80;22814;-59
2021/06/09 10:35:29;;;;;;;2.33;1.27;;;;;;;23.42;63.79;100472.77;1722091;81;21092;-59
2021/06/09 10:37:55;;;;;;;1.82;1.20;;;;;;;23.43;63.72;100460.52;1735372;81;21094;-59
2021/06/09 10:40:26;;;;;;;2.20;1.05;;;;;;;23.47;63.65;100456.46;1716865;81;21136;-59
2021/06/09 10:42:55;;;;;;;2.65;1.27;;;;;;;23.51;63.66;100453.23;1716460;81;21931;-59
2021/06/09 10:45:22;;;;;;;1.85;1.05;;;;;;;23.55;63.71;100448.62;1690516;81;21029;-59
2021/06/09 10:47:48;;;;;;;1.65;1.10;;;;;;;23.56;63.71;100450.23;1753505;80;21029;-59
2021/06/09 10:50:15;;;;;;;2.02;0.98;;;;;;;23.56;63.71;100454.39;1738201;80;20995;-59
2021/06/09 10:52:41;;;;;;;2.98;1.20;;;;;;;23.58;63.67;100451.52;1712929;81;21037;-58
2021/06/09 10:55:09;;;;;;;2.17;1.30;;;;;;;23.59;63.60;100448.17;1723570;80;21122;-59
2021/06/09 10:57:36;;;;;;;1.70;1.07;;;;;;;23.59;63.53;100453.72;1737843;81;20968;-59
2021/06/09 11:00:09;;;;;;;1.77;1.17;;;;;;;23.60;63.46;100470.02;1737742;81;21198;-59
2021/06/09 11:02:36;;;;;;;1.65;1.05;;;;;;;23.59;63.40;100461.45;1736961;80;21048;-60
2021/06/09 11:05:07;;;;;;;2.15;1.10;;;;;;;23.61;63.35;100461.11;1727563;81;21076;-60
2021/06/09 11:07:40;;;;;;;2.45;1.40;;;;;;;23.61;63.29;100461.92;1738294;81;21439;-59
2021/06/09 11:10:13;;;;;;;1.92;1.12;;;;;;;23.58;63.23;100458.46;1736703;81;21467;-59
2021/06/09 11:12:50;;;;;;;2.45;1.17;;;;;;;23.57;63.20;100462.39;1734701;81;21076;-60
2021/06/09 11:15:34;;;;;;;2.20;1.32;;;;;;;23.57;63.17;100462.39;1735903;81;21375;-59
2021/06/09 11:18:03;;;;;;;1.67;0.80;;;;;;;23.58;63.12;100457.65;1737630;81;21134;-59
2021/06/09 11:20:37;;;;;;;2.20;1.22;;;;;;;23.60;63.16;100455.31;1731123;81;21873;-58
2021/06/09 11:23:12;;;;;;;1.75;0.90;;;;;;;23.64;63.23;100461.80;1734229;81;21414;-58
2021/06/09 11:25:47;;;;;;;2.22;1.10;;;;;;;23.65;63.27;100452.32;1734199;81;21347;-58
2021/06/09 11:28:16;;;;;;;2.60;1.12;;;;;;;23.66;63.27;100451.98;1738365;81;21229;-58
2021/06/09 11:30:50;;;;;;;1.82;1.17;;;;;;;23.68;63.25;100448.06;1704034;81;21021;-59
2021/06/09 11:33:44;;;;;;;2.10;1.30;;;;;;;23.68;63.16;100446.67;1734989;81;21095;-58
2021/06/09 11:36:22;;;;;;;2.95;0.90;;;;;;;23.68;63.11;100448.06;1738627;81;21577;-60